Time;durP1;ratioP1;P1;durP2;ratioP2;P2;SDS_P1;SDS_P2;PMS_P1;PMS_P2;Temp;Humidity;BMP_temperature;BMP_pressure;BME280_temperature;BME280_humidity;BME280_pressure;Samples;Min_cycle;Max_cycle;Signal;HPM_P1;HPM_P2
2023/07/03 00:02:20;;;;;;;11.90;7.20;;;;;;;16.06;100.00;99679.09;179714;1255;44688;-87
2023/07/03 00:06:35;;;;;;;11.60;6.30;;;;;;;16.08;99.95;99680.61;181053;1256;45935;-89
2023/07/03 00:10:42;;;;;;;8.10;6.30;;;;;;;16.08;99.86;99683.87;180180;1258;45901;-89
2023/07/03 00:14:49;;;;;;;10.00;6.50;;;;;;;16.07;99.60;99686.29;179724;1257;46012;-89
2023/07/03 00:18:53;;;;;;;10.90;7.40;;;;;;;16.03;99.24;99686.63;179781;1257;59604;-88
2023/07/03 00:22:56;;;;;;;10.80;5.80;;;;;;;15.96;99.40;99686.95;180092;1257;44585;-89
2023/07/03 00:27:10;;;;;;;13.10;6.40;;;;;;;15.90;99.75;99696.09;180357;1256;44720;-90
2023/07/03 00:31:25;;;;;;;10.10;6.80;;;;;;;15.84;100.00;99696.13;180315;1257;45994;-89
2023/07/03 00:35:33;;;;;;;11.10;7.00;;;;;;;15.88;100.00;99696.31;180498;1257;44972;-89
2023/07/03 00:39:37;;;;;;;12.70;7.60;;;;;;;15.88;100.00;99698.83;180426;1258;59228;-89
2023/07/03 00:43:42;;;;;;;7.30;5.90;;;;;;;15.89;100.00;99704.78;179633;1256;51536;-89
2023/07/03 00:47:53;;;;;;;9.30;6.70;;;;;;;15.93;100.00;99703.95;180060;1255;45998;-89
2023/07/03 00:52:02;;;;;;;9.00;6.80;;;;;;;15.96;100.00;99699.90;179424;1257;44705;-88
2023/07/03 00:56:27;;;;;;;8.70;6.30;;;;;;;16.00;100.00;99702.48;179735;1254;44430;-87
2023/07/03 01:00:40;;;;;;;7.50;5.60;;;;;;;16.02;100.00;99705.60;177765;1256;57823;-89
2023/07/03 01:05:01;;;;;;;10.10;6.70;;;;;;;16.02;100.00;99705.87;177695;1260;45965;-89
2023/07/03 01:09:09;;;;;;;8.90;7.40;;;;;;;16.01;100.00;99707.58;177880;1260;46121;-89
2023/07/03 01:13:30;;;;;;;13.50;7.00;;;;;;;15.95;100.00;99707.60;177864;1256;46184;-89
2023/07/03 01:17:37;;;;;;;9.70;7.40;;;;;;;15.91;100.00;99706.73;177724;1257;45977;-90
2023/07/03 01:22:05;;;;;;;10.70;6.60;;;;;;;15.83;100.00;99712.17;177454;1256;57980;-89
2023/07/03 01:26:12;;;;;;;12.80;7.80;;;;;;;15.63;100.00;99715.69;177356;1257;46150;-89
2023/07/03 01:30:28;;;;;;;10.50;7.00;;;;;;;15.54;100.00;99712.34;177345;1260;46114;-89
2023/07/03 01:34:33;;;;;;;9.10;5.70;;;;;;;15.52;100.00;99712.36;177317;1261;46123;-88
2023/07/03 01:38:41;;;;;;;12.80;7.70;;;;;;;15.60;100.00;99709.36;177401;1260;46134;-88
2023/07/03 01:42:46;;;;;;;11.40;7.20;;;;;;;15.69;100.00;99706.27;177235;1256;60584;-88
2023/07/03 01:46:50;;;;;;;7.00;5.90;;;;;;;15.76;100.00;99705.52;177429;1258;46117;-88
2023/07/03 01:50:54;;;;;;;10.50;6.70;;;;;;;15.84;100.00;99704.02;177373;1257;46140;-88
2023/07/03 01:55:18;;;;;;;10.60;6.70;;;;;;;15.94;100.00;99704.91;177289;1257;46083;-88
2023/07/03 02:08:36;;;;;;;12.20;7.60;;;;;;;16.22;100.00;99704.74;179928;1260;46036;-88
2023/07/03 02:12:47;;;;;;;14.20;7.40;;;;;;;16.28;100.00;99707.52;180461;1261;45016;-87
2023/07/03 02:16:54;;;;;;;17.50;7.60;;;;;;;16.33;100.00;99707.84;180351;1260;44607;-86
2023/07/03 02:21:05;;;;;;;13.00;8.50;;;;;;;16.40;100.00;99708.75;180173;1262;45927;-88
2023/07/03 02:25:10;;;;;;;;;;;;;;;16.56;100.00;99706.61;179757;1259;57914;-89
2023/07/03 02:29:14;;;;;;;12.70;8.20;;;;;;;16.73;100.00;99703.59;179183;1263;46233;-88
2023/07/03 02:33:17;;;;;;;11.80;7.40;;;;;;;16.87;100.00;99705.34;179071;1259;44313;-87
2023/07/03 02:37:21;;;;;;;9.80;7.20;;;;;;;17.00;100.00;99703.80;178677;1263;45937;-88
2023/07/03 02:41:25;;;;;;;15.70;8.20;;;;;;;17.10;100.00;99698.95;178598;1259;45866;-88
2023/07/03 02:45:35;;;;;;;16.80;9.10;;;;;;;17.23;100.00;99694.90;178459;1260;58100;-88
2023/07/03 02:49:41;;;;;;;10.40;6.70;;;;;;;17.27;100.00;99692.88;179051;1260;44682;-88
2023/07/03 02:53:50;;;;;;;13.30;9.20;;;;;;;17.30;100.00;99692.65;180773;1254;44229;-88
2023/07/03 02:57:55;;;;;;;14.60;7.80;;;;;;;17.34;100.00;99693.56;178020;1262;46130;-88
2023/07/03 03:01:59;;;;;;;13.70;8.30;;;;;;;17.42;100.00;99689.95;178085;1257;46029;-87
2023/07/03 03:06:02;;;;;;;11.40;6.40;;;;;;;17.48;100.00;99683.09;177561;1262;60079;-88
2023/07/03 03:10:07;;;;;;;13.40;8.10;;;;;;;17.52;100.00;99686.83;177383;1259;46086;-87
2023/07/03 03:14:13;;;;;;;11.80;8.70;;;;;;;17.56;100.00;99685.35;177849;1256;46000;-87
2023/07/03 03:18:16;;;;;;;13.30;7.30;;;;;;;17.60;100.00;99683.13;177680;1256;44361;-88
2023/07/03 03:22:19;;;;;;;12.10;8.00;;;;;;;17.65;100.00;99685.05;178075;1259;46107;-87
2023/07/03 03:26:23;;;;;;;15.80;8.80;;;;;;;17.71;100.00;99685.38;177182;1262;57977;-88
2023/07/03 03:30:26;;;;;;;12.30;7.30;;;;;;;17.79;100.00;99688.54;178158;1260;46105;-88
2023/07/03 03:34:32;;;;;;;16.70;8.50;;;;;;;17.79;100.00;99684.77;177190;1259;45395;-88
2023/07/03 03:38:36;;;;;;;;;;;;;;;17.82;100.00;99686.17;177508;1258;44151;-87
2023/07/03 03:42:39;;;;;;;14.30;7.50;;;;;;;17.84;100.00;99685.91;177077;1260;45869;-88
2023/07/03 03:46:43;;;;;;;10.10;7.50;;;;;;;17.87;100.00;99689.61;177237;1257;57222;-88
2023/07/03 03:50:46;;;;;;;12.00;8.60;;;;;;;17.89;100.00;99684.11;177320;1261;46122;-88
2023/07/03 03:54:56;;;;;;;10.90;8.90;;;;;;;17.97;100.00;99677.95;177038;1259;46608;-88
2023/07/03 03:59:00;;;;;;;16.80;8.80;;;;;;;18.02;100.00;99672.11;178485;1257;45798;-89
2023/07/03 04:03:04;;;;;;;11.30;8.00;;;;;;;18.06;100.00;99672.23;178191;1257;46108;-89
2023/07/03 04:07:07;;;;;;;10.80;8.30;;;;;;;18.20;100.00;99673.05;177243;1260;58246;-88
2023/07/03 04:11:11;;;;;;;11.20;7.50;;;;;;;18.40;100.00;99672.13;177720;1258;266041;-87
2023/07/03 04:15:14;;;;;;;16.80;9.60;;;;;;;18.54;99.94;99668.04;177124;1257;44192;-88
2023/07/03 04:19:18;;;;;;;8.90;7.80;;;;;;;18.60;98.78;99669.46;178072;1257;44107;-88
2023/07/03 04:23:24;;;;;;;13.60;7.50;;;;;;;18.69;98.65;99673.02;177919;1260;45997;-88
2023/07/03 04:27:28;;;;;;;31.30;11.90;;;;;;;18.78;97.40;99671.75;177219;1261;58260;-87
2023/07/03 04:31:32;;;;;;;13.40;7.10;;;;;;;18.82;96.78;99669.02;177321;1260;46025;-87
2023/07/03 04:35:36;;;;;;;12.10;7.80;;;;;;;18.85;97.29;99658.50;178283;1257;46035;-88
2023/07/03 04:39:40;;;;;;;20.70;9.10;;;;;;;18.88;98.79;99658.80;177583;1258;45987;-87
2023/07/03 04:43:46;;;;;;;13.40;9.60;;;;;;;18.84;96.58;99648.38;178214;1262;46072;-88
2023/07/03 04:47:49;;;;;;;16.60;8.80;;;;;;;19.05;94.91;99646.27;177916;1259;58436;-87
2023/07/03 04:51:54;;;;;;;15.30;9.00;;;;;;;19.27;93.11;99641.07;177706;1260;46025;-87
2023/07/03 04:55:58;;;;;;;20.50;7.90;;;;;;;19.34;94.30;99634.47;177904;1260;46115;-88
2023/07/03 05:00:02;;;;;;;12.90;8.20;;;;;;;19.37;96.19;99633.08;178971;1259;45955;-87
2023/07/03 05:04:06;;;;;;;17.80;7.90;;;;;;;19.55;98.45;99648.64;180505;1256;87176;-62
2023/07/03 05:08:10;;;;;;;17.70;10.30;;;;;;;19.75;96.18;99648.60;180870;1256;58714;-65
2023/07/03 05:12:13;;;;;;;19.50;9.10;;;;;;;19.80;93.09;99649.52;180886;1256;45989;-65
2023/07/03 05:16:24;;;;;;;22.10;9.50;;;;;;;19.80;92.50;99649.36;180810;1258;43913;-64
2023/07/03 05:20:31;;;;;;;18.30;9.40;;;;;;;20.28;94.90;99643.14;180681;1256;43872;-64
2023/07/03 05:24:34;;;;;;;12.10;9.40;;;;;;;21.36;90.65;99637.27;180798;1257;45910;-63
2023/07/03 05:28:37;;;;;;;11.70;8.10;;;;;;;21.76;82.72;99640.23;180717;1256;59178;-63
2023/07/03 05:32:41;;;;;;;15.80;8.90;;;;;;;21.88;79.72;99635.92;180965;1256;43584;-63
2023/07/03 05:36:47;;;;;;;12.90;8.30;;;;;;;22.42;79.66;99634.46;180730;1256;44110;-64
2023/07/03 05:40:53;;;;;;;30.10;10.20;;;;;;;23.25;75.15;99625.72;180766;1256;43760;-64
2023/07/03 05:45:01;;;;;;;11.80;7.70;;;;;;;23.99;72.02;99625.27;180829;1256;43827;-64
2023/07/03 05:49:04;;;;;;;12.80;7.70;;;;;;;24.68;67.74;99621.30;180836;1256;59821;-64
2023/07/03 05:53:11;;;;;;;15.60;7.30;;;;;;;25.15;64.14;99617.36;180602;1256;44663;-64
2023/07/03 05:57:14;;;;;;;13.60;8.90;;;;;;;25.48;61.77;99619.77;180874;1257;43523;-64
2023/07/03 06:01:17;;;;;;;13.20;7.70;;;;;;;25.78;59.86;99623.34;180755;1256;43741;-64
2023/07/03 06:05:32;;;;;;;16.20;7.40;;;;;;;26.06;60.69;99626.70;181075;1255;43508;-60
2023/07/03 06:09:36;;;;;;;11.10;7.40;;;;;;;26.38;59.79;99630.98;177772;1257;57169;-87
2023/07/03 06:13:42;;;;;;;13.70;10.10;;;;;;;26.68;58.28;99626.21;177363;1256;46045;-87
2023/07/03 06:17:46;;;;;;;16.20;7.60;;;;;;;26.95;56.38;99623.52;177496;1256;46095;-88
2023/07/03 06:21:50;;;;;;;15.30;7.10;;;;;;;27.22;55.42;99623.46;178047;1256;45925;-89
2023/07/03 06:25:53;;;;;;;13.70;6.80;;;;;;;27.33;54.11;99621.47;177816;1257;46147;-88
2023/07/03 06:29:57;;;;;;;10.00;6.30;;;;;;;27.26;53.78;99623.23;177521;1256;59739;-88
2023/07/03 06:34:01;;;;;;;16.40;8.90;;;;;;;27.26;54.48;99623.73;177732;1256;46067;-87
2023/07/03 06:38:05;;;;;;;12.00;6.40;;;;;;;27.39;54.20;99621.00;177798;1257;45987;-87
2023/07/03 06:42:15;;;;;;;12.90;6.90;;;;;;;27.75;54.00;99615.81;180028;1251;97876;-91
2023/07/03 06:46:33;;;;;;;8.90;6.60;;;;;;;27.95;53.53;99616.84;180415;1261;46019;-90
2023/07/03 06:50:54;;;;;;;12.40;5.90;;;;;;;28.02;55.53;99611.39;180210;1261;57258;-90
2023/07/03 06:55:00;;;;;;;10.10;7.10;;;;;;;27.79;54.82;99611.98;180341;1262;44567;-90
2023/07/03 06:59:12;;;;;;;13.70;7.10;;;;;;;27.65;56.81;99607.67;180475;1261;45254;-90
2023/07/03 07:03:31;;;;;;;10.00;6.80;;;;;;;27.85;54.59;99603.19;180406;1261;44716;-91
2023/07/03 07:07:42;;;;;;;12.70;6.80;;;;;;;28.00;55.99;99598.58;180327;1261;44527;-89
2023/07/03 07:16:51;;;;;;;8.70;6.80;;;;;;;28.44;53.27;99596.95;180054;1264;44624;-91
2023/07/03 07:20:55;;;;;;;6.80;4.90;;;;;;;28.01;54.77;99591.66;179901;1264;46243;-90
2023/07/03 07:25:03;;;;;;;11.90;7.90;;;;;;;27.86;54.66;99584.89;179430;1264;44732;-90
2023/07/03 07:29:08;;;;;;;9.90;6.10;;;;;;;27.80;56.09;99583.25;179511;1265;46021;-90
2023/07/03 07:33:12;;;;;;;10.80;8.10;;;;;;;27.90;55.50;99585.38;179603;1264;59997;-90
2023/07/03 07:37:18;;;;;;;12.30;7.20;;;;;;;27.95;55.05;99579.95;179444;1265;45940;-90
2023/07/03 07:41:33;;;;;;;13.10;7.70;;;;;;;28.04;55.56;99575.72;179612;1267;46025;-89
2023/07/03 07:46:14;;;;;;;9.00;7.00;;;;;;;28.10;53.46;99568.39;180372;1260;44791;-89
2023/07/03 08:00:09;;;;;;;9.70;7.10;;;;;;;28.48;51.65;99575.38;180416;1260;44013;-89
2023/07/03 08:04:22;;;;;;;13.10;8.00;;;;;;;27.87;53.44;99577.80;180340;1262;46001;-89
2023/07/03 08:08:36;;;;;;;13.70;8.40;;;;;;;27.19;52.16;99581.98;180205;1261;44570;-89
2023/07/03 08:12:46;;;;;;;14.70;8.90;;;;;;;26.67;52.43;99581.85;180052;1262;45949;-91
2023/07/03 08:16:51;;;;;;;16.60;10.90;;;;;;;26.86;52.59;99579.96;180125;1260;58204;-87
2023/07/03 08:20:59;;;;;;;15.40;9.50;;;;;;;26.64;50.10;99585.57;180201;1262;46068;-89
2023/07/03 08:25:07;;;;;;;14.00;9.50;;;;;;;26.06;50.36;99586.30;180164;1260;46517;-91
2023/07/03 08:29:11;;;;;;;19.10;11.00;;;;;;;25.77;51.68;99584.27;180203;1260;44838;-90
2023/07/03 08:33:17;;;;;;;15.00;9.90;;;;;;;26.04;51.93;99585.56;180023;1261;44590;-88
2023/07/03 08:37:26;;;;;;;14.10;8.70;;;;;;;26.29;52.17;99587.88;179899;1263;59968;-89
2023/07/03 08:42:09;;;;;;;16.30;9.60;;;;;;;26.30;50.42;99593.92;179834;1264;44826;-89
2023/07/03 08:46:27;;;;;;;21.10;10.10;;;;;;;26.24;51.19;99592.09;180234;1261;45975;-88
2023/07/03 08:50:33;;;;;;;16.20;8.90;;;;;;;26.37;51.78;99588.77;180061;1261;46073;-88
2023/07/03 08:54:56;;;;;;;16.00;10.30;;;;;;;25.84;51.80;99599.44;180034;1261;46194;-90
2023/07/03 08:59:06;;;;;;;17.50;9.30;;;;;;;25.17;52.12;99604.58;179965;1260;58276;-90
2023/07/03 09:03:34;;;;;;;16.20;9.70;;;;;;;25.15;53.94;99599.17;179895;1261;46168;-90
2023/07/03 09:08:27;;;;;;;18.80;9.90;;;;;;;25.44;53.15;99599.75;180179;1260;44162;-91
2023/07/03 09:13:28;;;;;;;19.70;10.00;;;;;;;25.56;52.73;99593.77;179985;1260;45287;-89
2023/07/03 09:17:37;;;;;;;13.30;8.90;;;;;;;25.77;54.12;99594.30;179983;1259;46052;-89
2023/07/03 09:21:47;;;;;;;15.60;9.30;;;;;;;25.96;51.89;99593.81;180060;1260;59641;-91
2023/07/03 09:36:09;;;;;;;14.40;8.40;;;;;;;26.50;50.27;99609.48;180078;1262;47571;-88
2023/07/03 09:40:39;;;;;;;11.50;8.40;;;;;;;26.67;50.59;99602.47;180127;1266;46659;-91
2023/07/03 09:44:58;;;;;;;22.70;8.00;;;;;;;26.61;49.42;99602.39;180260;1261;58356;-90
2023/07/03 09:54:22;;;;;;;9.80;7.50;;;;;;;26.41;48.96;99614.56;180414;1259;43757;-91
2023/07/03 09:58:33;;;;;;;17.50;8.50;;;;;;;25.86;51.69;99625.56;180155;1259;44592;-90
2023/07/03 10:02:39;;;;;;;13.40;9.70;;;;;;;25.31;52.85;99627.17;180283;1259;45917;-89
2023/07/03 10:07:20;;;;;;;19.30;10.50;;;;;;;25.09;54.39;99634.16;180404;1260;60768;-89
2023/07/03 10:15:55;;;;;;;19.60;10.70;;;;;;;25.13;56.78;99629.95;180087;1260;44580;-88
2023/07/03 10:20:10;;;;;;;20.00;10.40;;;;;;;24.97;56.03;99636.50;180090;1261;44873;-91
2023/07/03 10:24:43;;;;;;;16.80;10.10;;;;;;;24.63;56.74;99645.21;179769;1260;45973;-89
2023/07/03 10:29:17;;;;;;;16.50;11.00;;;;;;;24.88;56.09;99634.08;180068;1264;58000;-91
2023/07/03 10:42:57;;;;;;;16.20;8.30;;;;;;;25.39;51.45;99640.46;180224;1260;46032;-90
2023/07/03 10:47:46;;;;;;;11.10;8.00;;;;;;;25.12;52.20;99649.35;180167;1260;46117;-88
2023/07/03 10:52:21;;;;;;;10.50;6.30;;;;;;;24.99;50.58;99642.42;180267;1260;59495;-91
2023/07/03 10:56:50;;;;;;;14.30;6.90;;;;;;;25.15;51.04;99648.16;180233;1261;46186;-88
2023/07/03 11:01:22;;;;;;;10.50;5.30;;;;;;;25.34;50.00;99641.98;180171;1259;46091;-89
2023/07/03 11:06:18;;;;;;;14.70;5.40;;;;;;;25.51;48.81;99645.14;180154;1260;45133;-89
2023/07/03 11:11:04;;;;;;;13.40;6.90;;;;;;;25.58;48.77;99644.94;180336;1260;46060;-91
2023/07/03 11:15:31;;;;;;;14.70;5.70;;;;;;;25.43;49.16;99644.91;180281;1260;59374;-91
2023/07/03 11:20:00;;;;;;;13.20;5.70;;;;;;;25.49;50.38;99655.72;180342;1261;44654;-91
2023/07/03 11:24:32;;;;;;;14.10;7.00;;;;;;;25.50;49.49;99654.91;180512;1260;44601;-90
2023/07/03 11:29:15;;;;;;;9.20;4.80;;;;;;;25.79;49.30;99655.50;181434;1259;43749;-90
2023/07/03 11:33:22;;;;;;;9.80;5.70;;;;;;;25.81;47.64;99644.20;181351;1258;43831;-89
2023/07/03 11:37:57;;;;;;;12.30;7.10;;;;;;;25.61;48.28;99646.70;181270;1259;60724;-89
2023/07/03 11:42:05;;;;;;;15.80;6.40;;;;;;;25.70;48.23;99649.99;181254;1259;43831;-90
2023/07/03 11:46:28;;;;;;;11.00;5.90;;;;;;;25.53;48.35;99646.11;181305;1259;49114;-90
2023/07/03 11:59:44;;;;;;;12.50;6.40;;;;;;;26.61;48.22;99647.66;181323;1260;59820;-90
2023/07/03 12:04:44;;;;;;;9.40;5.40;;;;;;;26.88;48.26;99648.21;181239;1257;84835;-63
2023/07/03 12:19:30;;;;;;;9.60;5.70;;;;;;;27.27;47.45;99640.67;181175;1263;43155;-63
2023/07/03 12:23:39;;;;;;;13.00;5.60;;;;;;;27.24;46.12;99634.46;181161;1263;59480;-63
2023/07/03 12:27:42;;;;;;;18.40;6.70;;;;;;;27.13;45.20;99637.16;181179;1263;43703;-63
2023/07/03 12:32:08;;;;;;;11.50;6.30;;;;;;;27.06;46.81;99634.88;181166;1265;43000;-64
2023/07/03 12:36:11;;;;;;;10.00;6.00;;;;;;;26.96;47.60;99633.97;181212;1264;43130;-64
2023/07/03 12:40:17;;;;;;;11.30;6.60;;;;;;;26.97;46.61;99629.84;181235;1264;43648;-64
2023/07/03 12:44:23;;;;;;;12.20;7.00;;;;;;;26.84;48.10;99636.68;181168;1264;59547;-65
2023/07/03 12:48:28;;;;;;;10.80;5.70;;;;;;;26.95;45.83;99627.85;181193;1263;43724;-63
2023/07/03 12:52:33;;;;;;;13.30;5.70;;;;;;;27.01;47.33;99632.23;181238;1264;43784;-58
2023/07/03 12:56:45;;;;;;;11.00;5.70;;;;;;;27.13;46.74;99632.08;181248;1263;43336;-58
2023/07/03 13:00:59;;;;;;;10.70;5.90;;;;;;;27.07;47.54;99638.38;181296;1263;43436;-58
2023/07/03 13:05:13;;;;;;;8.40;5.40;;;;;;;27.18;48.56;99629.08;181274;1263;58017;-58
2023/07/03 13:09:26;;;;;;;16.50;5.80;;;;;;;27.15;47.22;99632.98;181218;1264;43426;-59
2023/07/03 13:14:12;;;;;;;13.30;6.90;;;;;;;27.15;46.30;99628.79;181286;1263;43773;-60
2023/07/03 13:18:19;;;;;;;8.90;5.40;;;;;;;27.35;46.71;99627.02;181239;1264;44119;-58
2023/07/03 13:23:16;;;;;;;12.80;6.70;;;;;;;27.42;46.62;99626.95;181283;1264;43905;-58
2023/07/03 13:27:20;;;;;;;;;;;;;;;27.53;46.47;99623.33;181292;1264;58380;-58
2023/07/03 13:31:26;;;;;;;12.50;6.20;;;;;;;27.47;46.01;99617.73;181265;1263;43800;-58
2023/07/03 13:35:51;;;;;;;12.50;6.00;;;;;;;27.51;46.08;99618.29;181277;1262;43081;-58
2023/07/03 13:39:55;;;;;;;13.50;5.80;;;;;;;27.49;46.03;99615.89;181240;1263;43332;-57
2023/07/03 13:44:07;;;;;;;14.80;8.20;;;;;;;27.50;46.88;99616.84;181241;1263;43041;-58
2023/07/03 13:48:10;;;;;;;12.90;5.80;;;;;;;27.71;47.27;99614.09;181268;1264;59804;-58
2023/07/03 13:52:13;;;;;;;9.50;6.00;;;;;;;27.73;45.82;99614.20;181182;1264;43779;-58
2023/07/03 13:56:19;;;;;;;9.60;5.40;;;;;;;27.64;47.16;99612.91;181204;1264;43262;-59
2023/07/03 14:00:22;;;;;;;17.00;7.10;;;;;;;27.80;47.28;99612.21;181228;1264;43799;-59
2023/07/03 14:04:25;;;;;;;12.50;5.80;;;;;;;27.85;46.57;99614.83;181299;1264;43691;-60
2023/07/03 14:08:30;;;;;;;8.00;5.10;;;;;;;27.83;46.37;99609.05;181262;1266;57287;-58
2023/07/03 14:12:38;;;;;;;11.60;7.50;;;;;;;27.62;45.81;99617.02;181284;1263;43032;-58
2023/07/03 14:16:41;;;;;;;16.70;9.10;;;;;;;27.64;46.72;99617.56;181266;1264;43114;-57
2023/07/03 14:20:48;;;;;;;15.00;7.30;;;;;;;27.79;47.63;99613.73;181236;1264;43936;-58
2023/07/03 14:24:57;;;;;;;9.60;6.50;;;;;;;27.98;48.21;99609.77;181217;1264;43069;-59
2023/07/03 14:29:00;;;;;;;9.40;6.00;;;;;;;28.06;47.46;99608.59;181275;1263;57592;-61
2023/07/03 14:33:09;;;;;;;10.40;5.80;;;;;;;27.86;45.63;99604.52;181266;1265;43037;-61
2023/07/03 14:37:14;;;;;;;10.50;7.30;;;;;;;28.03;46.79;99610.54;181186;1264;43204;-59
2023/07/03 14:41:18;;;;;;;18.90;9.40;;;;;;;28.09;45.93;99604.64;181288;1264;43137;-59
2023/07/03 14:45:22;;;;;;;8.70;5.70;;;;;;;28.18;46.55;99603.03;181228;1265;43620;-59
2023/07/03 14:49:26;;;;;;;9.70;5.30;;;;;;;28.11;46.69;99602.89;181065;1264;58397;-59
2023/07/03 14:53:29;;;;;;;16.30;7.50;;;;;;;28.20;45.93;99601.80;181225;1263;43668;-59
2023/07/03 14:58:33;;;;;;;14.50;8.00;;;;;;;28.19;46.79;99599.99;181261;1264;43744;-59
2023/07/03 15:02:38;;;;;;;12.50;5.90;;;;;;;27.95;45.65;99592.79;181195;1264;43785;-60
2023/07/03 15:06:53;;;;;;;18.30;6.60;;;;;;;27.84;45.96;99594.87;181216;1264;43057;-59
2023/07/03 15:10:56;;;;;;;17.60;8.30;;;;;;;27.98;46.64;99598.56;181206;1265;58599;-61
2023/07/03 15:15:01;;;;;;;10.00;6.20;;;;;;;28.11;46.95;99592.52;181157;1265;43384;-59
2023/07/03 15:19:07;;;;;;;7.80;6.20;;;;;;;28.25;46.87;99598.52;181124;1265;44623;-59
2023/07/03 15:23:10;;;;;;;10.30;5.80;;;;;;;28.10;45.57;99590.97;181201;1264;43367;-59
2023/07/03 15:27:40;;;;;;;18.30;6.10;;;;;;;27.98;44.87;99589.71;181225;1264;43054;-59
2023/07/03 15:32:04;;;;;;;11.20;6.10;;;;;;;27.68;44.78;99586.84;181218;1265;58261;-59
2023/07/03 15:36:08;;;;;;;10.70;4.80;;;;;;;27.72;45.85;99596.29;180480;1260;97841;-88
2023/07/03 15:40:13;;;;;;;73.60;17.50;;;;;;;27.65;45.95;99595.45;180968;1260;43961;-89
2023/07/03 15:44:18;;;;;;;14.50;6.50;;;;;;;27.49;46.29;99597.21;181090;1260;43723;-89
2023/07/03 15:48:25;;;;;;;12.20;6.00;;;;;;;27.40;46.24;99599.29;181053;1262;43320;-89
2023/07/03 15:52:34;;;;;;;11.20;6.80;;;;;;;27.33;47.34;99597.77;181009;1260;59985;-88
2023/07/03 15:56:51;;;;;;;8.90;5.90;;;;;;;27.36;47.48;99597.64;181049;1260;43899;-89
2023/07/03 16:01:06;;;;;;;11.40;4.60;;;;;;;27.27;47.25;99600.28;180926;1262;44787;-87
2023/07/03 16:05:13;;;;;;;14.00;7.00;;;;;;;27.04;48.05;99606.42;180989;1260;43916;-88
2023/07/03 16:09:21;;;;;;;10.90;5.10;;;;;;;26.83;48.24;99601.98;181040;1260;45317;-89
2023/07/03 16:13:33;;;;;;;7.10;4.40;;;;;;;26.96;50.37;99604.45;180756;1260;321803;-89
2023/07/03 16:17:38;;;;;;;11.80;5.40;;;;;;;27.20;48.13;99593.59;181027;1260;44136;-89
2023/07/03 16:21:46;;;;;;;14.70;6.30;;;;;;;27.11;48.44;99609.63;180876;1262;44171;-88
2023/07/03 16:26:01;;;;;;;12.10;5.70;;;;;;;26.98;48.47;99613.38;180971;1260;43940;-88
2023/07/03 16:30:09;;;;;;;10.90;5.00;;;;;;;26.98;49.72;99617.30;181032;1260;43752;-88
2023/07/03 16:34:14;;;;;;;12.20;6.80;;;;;;;26.80;49.79;99617.95;180815;1260;58524;-88
2023/07/03 16:38:20;;;;;;;15.20;7.00;;;;;;;26.66;49.60;99625.31;180954;1261;43980;-89
2023/07/03 16:42:27;;;;;;;6.70;4.60;;;;;;;26.49;49.48;99624.55;180893;1260;44039;-88
2023/07/03 16:46:32;;;;;;;16.20;6.20;;;;;;;26.44;49.25;99624.77;180904;1260;44017;-88
2023/07/03 16:50:37;;;;;;;13.60;5.90;;;;;;;26.27;49.84;99628.94;180994;1260;43790;-88
2023/07/03 16:54:41;;;;;;;9.40;6.20;;;;;;;26.09;49.34;99631.20;180909;1260;57983;-87
2023/07/03 16:58:49;;;;;;;9.00;5.70;;;;;;;26.04;49.40;99634.17;181027;1260;43786;-87
2023/07/03 17:02:53;;;;;;;15.90;7.70;;;;;;;25.89;50.46;99635.09;181200;1260;43739;-87
2023/07/03 17:06:57;;;;;;;10.80;5.10;;;;;;;25.66;51.29;99631.05;181011;1260;43770;-87
2023/07/03 17:11:02;;;;;;;12.30;5.70;;;;;;;25.63;53.13;99625.30;181014;1261;43832;-90
2023/07/03 17:15:10;;;;;;;8.80;5.60;;;;;;;25.53;52.22;99625.86;181067;1262;58213;-90
2023/07/03 17:19:14;;;;;;;13.10;6.10;;;;;;;25.48;52.77;99626.17;180886;1262;43867;-89
2023/07/03 17:23:25;;;;;;;13.20;6.20;;;;;;;25.39;53.00;99625.60;181015;1260;43797;-89
2023/07/03 17:27:30;;;;;;;17.10;6.50;;;;;;;25.24;53.71;99632.08;181067;1260;43653;-91
2023/07/03 17:31:34;;;;;;;8.40;5.70;;;;;;;25.00;54.84;99637.98;180986;1260;44101;-90
2023/07/03 17:35:39;;;;;;;14.10;5.80;;;;;;;24.77;55.50;99638.37;180980;1263;58924;-90
2023/07/03 17:39:48;;;;;;;9.20;5.70;;;;;;;24.64;56.95;99638.77;180904;1261;43820;-90
2023/07/03 17:43:53;;;;;;;15.60;6.30;;;;;;;24.48;58.03;99642.45;180960;1261;43363;-88
2023/07/03 17:47:58;;;;;;;17.00;6.70;;;;;;;24.23;58.83;99642.42;180835;1262;44067;-90
2023/07/03 17:52:03;;;;;;;11.00;6.10;;;;;;;24.06;59.39;99642.16;180954;1260;43856;-89
2023/07/03 17:56:08;;;;;;;14.20;5.80;;;;;;;23.97;61.86;99642.97;180920;1261;60481;-90
2023/07/03 18:00:13;;;;;;;13.10;5.70;;;;;;;23.78;64.14;99647.77;181040;1260;43935;-91
2023/07/03 18:04:23;;;;;;;8.60;5.50;;;;;;;23.45;65.52;99648.52;181058;1260;43880;-91
2023/07/03 18:08:27;;;;;;;10.50;5.00;;;;;;;23.06;65.28;99655.48;181014;1261;44005;-90
2023/07/03 18:12:31;;;;;;;8.00;4.80;;;;;;;22.79;65.19;99660.33;180982;1261;43852;-87
2023/07/03 18:16:36;;;;;;;10.70;5.00;;;;;;;22.54;64.87;99658.95;180951;1260;59829;-88
2023/07/03 18:20:39;;;;;;;12.70;6.40;;;;;;;22.34;65.34;99660.98;180927;1260;43758;-89
2023/07/03 18:24:43;;;;;;;12.80;5.00;;;;;;;22.11;66.07;99661.25;180964;1261;43728;-88
2023/07/03 18:28:47;;;;;;;9.70;5.20;;;;;;;21.86;68.64;99667.30;180918;1260;43879;-88
2023/07/03 18:32:51;;;;;;;11.90;6.70;;;;;;;21.59;70.98;99674.20;180937;1261;43959;-88
2023/07/03 18:36:55;;;;;;;9.10;5.30;;;;;;;21.31;71.73;99678.86;180859;1261;57146;-87
2023/07/03 18:41:05;;;;;;;11.30;5.80;;;;;;;21.03;72.19;99688.22;181013;1260;43773;-88
2023/07/03 18:45:09;;;;;;;19.70;7.20;;;;;;;20.90;71.61;99691.98;180950;1260;43789;-89
2023/07/03 18:49:16;;;;;;;16.30;8.00;;;;;;;20.84;72.20;99697.88;180904;1260;43779;-88
2023/07/03 18:53:21;;;;;;;14.00;6.70;;;;;;;20.74;72.63;99706.16;180897;1261;43859;-88
2023/07/03 18:57:26;;;;;;;15.30;5.80;;;;;;;20.78;72.17;99714.36;181033;1260;59215;-89
2023/07/03 19:01:33;;;;;;;10.30;7.20;;;;;;;20.75;72.66;99724.42;180872;1262;43650;-89
2023/07/03 19:05:48;;;;;;;15.00;5.30;;;;;;;20.67;72.65;99731.27;181003;1260;43885;-88
2023/07/03 19:09:52;;;;;;;15.10;7.40;;;;;;;20.55;73.14;99738.94;180990;1263;44027;-88
2023/07/03 19:14:16;;;;;;;9.40;6.60;;;;;;;20.46;73.29;99747.89;180903;1261;43816;-88
2023/07/03 19:18:21;;;;;;;12.10;6.30;;;;;;;20.32;74.29;99755.92;180962;1262;57904;-88
2023/07/03 19:22:27;;;;;;;8.30;5.60;;;;;;;20.16;74.85;99763.17;180873;1262;43861;-88
2023/07/03 19:26:36;;;;;;;11.50;5.80;;;;;;;19.98;76.29;99770.73;180867;1262;43764;-88
2023/07/03 19:30:58;;;;;;;8.60;6.70;;;;;;;19.79;77.85;99775.81;180884;1262;43856;-88
2023/07/03 19:35:03;;;;;;;16.40;7.10;;;;;;;19.68;78.48;99783.71;180882;1261;43779;-88
2023/07/03 19:39:08;;;;;;;9.70;6.50;;;;;;;19.50;79.63;99795.30;180938;1261;57133;-88
2023/07/03 19:43:11;;;;;;;11.10;7.30;;;;;;;19.49;78.01;99793.80;180784;1261;43994;-89
2023/07/03 19:47:15;;;;;;;12.00;5.40;;;;;;;19.38;79.92;99800.56;180898;1263;43837;-87
2023/07/03 19:51:18;;;;;;;15.00;7.10;;;;;;;19.25;80.80;99800.86;180888;1262;44012;-88
2023/07/03 19:55:22;;;;;;;12.10;6.50;;;;;;;19.07;81.26;99810.20;180981;1261;43745;-88
2023/07/03 19:59:26;;;;;;;12.40;6.80;;;;;;;18.95;81.81;99819.82;180829;1262;58277;-89
2023/07/03 20:03:29;;;;;;;16.20;6.20;;;;;;;18.88;81.94;99820.67;180828;1261;43950;-89
2023/07/03 20:07:34;;;;;;;13.10;7.60;;;;;;;18.81;81.90;99822.73;180871;1260;43800;-89
2023/07/03 20:11:38;;;;;;;13.30;8.40;;;;;;;18.77;81.90;99826.48;180928;1260;44038;-89
2023/07/03 20:15:42;;;;;;;13.40;6.10;;;;;;;18.76;81.34;99827.59;180927;1262;44026;-89
2023/07/03 20:19:46;;;;;;;11.50;6.00;;;;;;;18.69;80.66;99825.25;180927;1262;65349;-89
2023/07/03 20:23:53;;;;;;;21.60;7.50;;;;;;;18.71;80.11;99826.29;180875;1260;44075;-89